Time;durP1;ratioP1;P1;durP2;ratioP2;P2;SDS_P1;SDS_P2;PMS_P1;PMS_P2;Temp;Humidity;BMP_temperature;BMP_pressure;BME280_temperature;BME280_humidity;BME280_pressure;Samples;Min_cycle;Max_cycle;Signal;HPM_P1;HPM_P2
2022/09/01 00:00:48;;;;;;;;;17.00;17.00;;;;;20.98;57.08;100744.50;5120977;27;45661;-81
2022/09/01 00:03:16;;;;;;;;;19.50;19.50;;;;;20.91;57.04;100735.28;5138773;27;46348;-77
2022/09/01 00:05:43;;;;;;;;;17.75;17.25;;;;;20.93;57.04;100744.91;5138305;27;45560;-81
2022/09/01 00:08:08;;;;;;;;;16.25;16.25;;;;;20.91;57.38;100741.50;5139269;27;45248;-80
2022/09/01 00:10:34;;;;;;;;;18.25;18.25;;;;;20.82;57.59;100732.41;5120654;27;45312;-82
2022/09/01 00:12:59;;;;;;;;;20.50;20.00;;;;;20.86;57.54;100747.22;5138618;27;45348;-81
2022/09/01 00:15:25;;;;;;;;;19.50;19.50;;;;;20.84;57.39;100743.81;5140723;27;45459;-83
2022/09/01 00:17:50;;;;;;;;;19.00;19.00;;;;;20.80;57.50;100736.19;5144650;27;45384;-78
2022/09/01 00:20:16;;;;;;;;;16.75;16.75;;;;;20.79;57.94;100729.13;5144590;27;45685;-80
2022/09/01 00:22:41;;;;;;;;;19.00;19.00;;;;;20.78;57.86;100736.28;5144375;27;45473;-81
2022/09/01 00:25:07;;;;;;;;;18.25;18.25;;;;;20.75;57.94;100723.16;5144979;27;45140;-78
2022/09/01 00:27:32;;;;;;;;;17.50;17.50;;;;;20.66;57.52;100723.91;5126887;27;45441;-82
2022/09/01 00:29:59;;;;;;;;;16.75;16.75;;;;;20.71;57.84;100730.59;5146469;27;45626;-80
2022/09/01 00:32:24;;;;;;;;;17.75;17.75;;;;;20.67;57.75;100725.59;5146115;27;46592;-74
2022/09/01 00:34:50;;;;;;;;;16.00;16.00;;;;;20.63;58.12;100721.47;5144310;27;45257;-82
2022/09/01 00:37:15;;;;;;;;;18.00;18.00;;;;;20.59;58.51;100723.53;5148865;27;45415;-77
2022/09/01 00:39:41;;;;;;;;;17.75;17.75;;;;;20.60;58.26;100727.91;5150619;27;45336;-76
2022/09/01 00:42:06;;;;;;;;;18.00;18.00;;;;;20.58;58.61;100732.50;5135276;27;47508;-75
2022/09/01 00:44:31;;;;;;;;;12.00;12.00;;;;;20.54;58.89;100728.38;5151271;27;45343;-80
2022/09/01 00:46:57;;;;;;;;;18.75;18.25;;;;;20.53;58.95;100730.22;5140766;27;45304;-75
2022/09/01 00:49:29;;;;;;;;;19.00;19.00;;;;;20.51;58.87;100733.97;5141460;27;45498;-76
2022/09/01 00:52:12;;;;;;;;;20.50;20.00;;;;;20.50;59.00;100732.28;5141005;27;46570;-76
2022/09/01 00:54:43;;;;;;;;;15.25;15.25;;;;;20.48;59.36;100726.22;5140782;27;45435;-75
2022/09/01 00:57:11;;;;;;;;;18.00;18.00;;;;;20.42;59.46;100719.56;5141116;27;45269;-75
2022/09/01 00:59:45;;;;;;;;;17.50;17.50;;;;;20.43;59.30;100721.25;5141564;27;45477;-80
2022/09/01 01:02:11;;;;;;;;;19.25;19.25;;;;;20.43;59.48;100729.28;5140812;27;45709;-76
2022/09/01 01:04:36;;;;;;;;;21.75;21.25;;;;;20.39;59.70;100722.47;5141207;27;45263;-76
2022/09/01 01:07:02;;;;;;;;;16.25;16.25;;;;;20.38;59.93;100720.78;5142483;27;45448;-77
2022/09/01 01:09:32;;;;;;;;;17.25;17.25;;;;;20.35;59.92;100721.84;5143619;27;45424;-78
2022/09/01 01:11:59;;;;;;;;;17.00;17.00;;;;;20.29;59.97;100711.66;5147733;27;45342;-75
2022/09/01 01:14:28;;;;;;;;;17.00;17.00;;;;;20.28;60.21;100708.16;5144600;27;45239;-76
2022/09/01 01:16:54;;;;;;;;;17.00;17.00;;;;;20.23;59.81;100705.00;5143408;27;45373;-75
2022/09/01 01:25:23;;;;;;;;;17.25;17.25;;;;;20.14;60.59;100708.38;5142650;27;45340;-83
2022/09/01 01:27:48;;;;;;;;;18.25;18.25;;;;;20.12;60.61;100712.97;5141097;27;45226;-78
2022/09/01 01:30:18;;;;;;;;;18.75;18.75;;;;;20.10;60.73;100707.78;5142080;27;45274;-80
2022/09/01 01:32:46;;;;;;;;;16.00;16.00;;;;;20.09;61.09;100711.41;5142140;27;46620;-80
2022/09/01 01:35:15;;;;;;;;;18.75;18.75;;;;;20.05;61.36;100701.09;5142587;27;45306;-80
2022/09/01 01:37:45;;;;;;;;;9.00;9.00;;;;;20.04;61.39;100712.72;5157041;27;45153;-76
2022/09/01 01:40:14;;;;;;;;;17.00;17.00;;;;;20.04;61.30;100710.06;5148044;27;45282;-77
2022/09/01 01:42:45;;;;;;;;;17.75;17.75;;;;;19.99;61.23;100713.94;5141368;27;45541;-80
2022/09/01 01:45:14;;;;;;;;;13.75;13.75;;;;;19.98;61.39;100708.75;5121102;27;45470;-79
2022/09/01 01:47:39;;;;;;;;;18.00;18.00;;;;;20.00;61.92;100707.63;5140524;27;45329;-78
2022/09/01 01:50:08;;;;;;;;;16.25;16.25;;;;;19.97;61.99;100723.06;5141083;27;45404;-76
2022/09/01 01:52:34;;;;;;;;;17.50;17.50;;;;;19.87;61.75;100700.69;5140646;27;45457;-76
2022/09/01 01:55:01;;;;;;;;;18.25;18.25;;;;;19.92;62.31;100711.88;5142918;27;45278;-76
2022/09/01 01:57:30;;;;;;;;;19.25;19.25;;;;;19.91;62.01;100720.88;5142494;27;45321;-82
2022/09/01 01:59:56;;;;;;;;;19.75;19.75;;;;;19.82;61.90;100704.56;5141027;27;45234;-80
2022/09/01 02:02:21;;;;;;;;;17.50;17.50;;;;;19.78;62.31;100711.09;5140112;27;45522;-80
2022/09/01 02:04:46;;;;;;;;;18.25;18.25;;;;;19.84;62.47;100715.09;5139906;27;45442;-78
2022/09/01 02:07:12;;;;;;;;;19.00;18.25;;;;;19.86;62.00;100715.84;5139718;27;45428;-77
2022/09/01 02:09:39;;;;;;;;;16.75;16.75;;;;;19.83;62.65;100718.75;5140422;27;45332;-79
2022/09/01 02:12:06;;;;;;;;;16.25;16.25;;;;;19.79;62.57;100718.16;5140541;27;45352;-78
2022/09/01 02:14:32;;;;;;;;;17.25;17.25;;;;;19.78;62.94;100724.47;5140007;27;45467;-79
2022/09/01 02:17:00;;;;;;;;;19.25;19.25;;;;;19.75;63.15;100713.16;5140763;27;45360;-81
2022/09/01 02:19:26;;;;;;;;;17.75;17.75;;;;;19.73;62.88;100720.44;5140775;27;45659;-79
2022/09/01 02:21:54;;;;;;;;;15.75;15.75;;;;;19.68;62.76;100721.63;5140004;27;45339;-78
2022/09/01 02:24:21;;;;;;;;;14.50;14.50;;;;;19.69;63.30;100725.16;5140804;27;45409;-79
2022/09/01 02:26:47;;;;;;;;;14.25;14.25;;;;;19.69;63.17;100723.34;5140433;27;45384;-75
2022/09/01 02:29:21;;;;;;;;;12.00;12.00;;;;;19.68;63.37;100723.47;5141155;27;45505;-77
2022/09/01 02:31:50;;;;;;;;;17.75;17.75;;;;;19.68;63.21;100728.81;5125004;27;48509;-79
2022/09/01 02:34:17;;;;;;;;;17.00;17.00;;;;;19.67;63.45;100727.09;5145428;27;45216;-75
2022/09/01 02:36:46;;;;;;;;;16.00;16.00;;;;;19.62;63.77;100721.25;5148861;27;45265;-77
2022/09/01 02:39:22;;;;;;;;;16.25;16.25;;;;;19.65;63.82;100731.69;5150825;27;44821;-77
2022/09/01 02:41:48;;;;;;;;;14.75;14.75;;;;;19.62;63.61;100726.59;5150327;27;45562;-80
2022/09/01 02:44:13;;;;;;;;;17.25;17.25;;;;;19.56;63.36;100714.56;5145980;27;45246;-79
2022/09/01 02:46:43;;;;;;;;;16.00;16.00;;;;;19.60;63.94;100718.69;5130452;27;45325;-79
2022/09/01 02:49:18;;;;;;;;;16.25;16.25;;;;;19.61;63.85;100720.41;5130685;27;45336;-76
2022/09/01 02:51:47;;;;;;;;;15.50;15.50;;;;;19.61;63.64;100725.75;5144564;27;45948;-81
2022/09/01 02:54:16;;;;;;;;;17.00;17.00;;;;;19.60;64.04;100720.50;5142195;27;45442;-81
2022/09/01 02:56:46;;;;;;;;;13.75;13.75;;;;;19.62;63.50;100730.09;5144045;27;45228;-77
2022/09/01 02:59:14;;;;;;;;;14.75;14.75;;;;;19.66;63.60;100725.41;5141539;27;45411;-78
2022/09/01 03:01:39;;;;;;;;;15.25;15.25;;;;;19.60;63.68;100704.50;5140558;27;46137;-80
2022/09/01 03:04:09;;;;;;;;;16.00;16.00;;;;;19.58;63.60;100699.28;5140189;27;45271;-79
2022/09/01 03:06:36;;;;;;;;;12.75;12.75;;;;;19.58;64.01;100707.28;5140399;27;45394;-78
2022/09/01 03:09:05;;;;;;;;;13.50;13.50;;;;;19.65;63.59;100716.53;5140383;27;45465;-78
2022/09/01 03:11:33;;;;;;;;;18.00;18.00;;;;;19.67;63.82;100716.44;5140765;27;45299;-81
2022/09/01 03:13:58;;;;;;;;;16.75;16.75;;;;;19.66;63.64;100712.06;5121289;27;45600;-79
2022/09/01 03:16:24;;;;;;;;;15.00;15.00;;;;;19.65;63.75;100710.34;5139718;27;45303;-81
2022/09/01 03:18:50;;;;;;;;;13.50;13.50;;;;;19.67;63.83;100711.09;5139977;27;45285;-79
2022/09/01 03:21:16;;;;;;;;;15.50;15.50;;;;;19.67;63.44;100711.94;5120289;27;47163;-78
2022/09/01 03:23:43;;;;;;;;;15.75;15.25;;;;;19.70;63.38;100711.69;5120721;27;46129;-80
2022/09/01 03:26:10;;;;;;;;;15.50;15.50;;;;;19.63;63.76;100704.28;5139914;27;45180;-79
2022/09/01 03:28:36;;;;;;;;;15.75;15.75;;;;;19.67;64.21;100716.44;5139552;27;45275;-76
2022/09/01 03:31:02;;;;;;;;;16.75;16.50;;;;;19.63;63.61;100710.47;5138976;27;46199;-79
2022/09/01 03:33:28;;;;;;;;;13.00;13.00;;;;;19.68;64.06;100718.13;5138592;27;45777;-77
2022/09/01 03:35:54;;;;;;;;;12.50;12.50;;;;;19.69;63.46;100712.66;5139109;27;45374;-77
2022/09/01 03:38:22;;;;;;;;;16.50;16.50;;;;;19.66;63.56;100706.72;5139973;27;45343;-78
2022/09/01 03:40:51;;;;;;;;;13.00;13.00;;;;;19.62;63.63;100708.75;5119929;27;46833;-78
2022/09/01 03:43:22;;;;;;;;;15.75;15.75;;;;;19.61;63.72;100708.88;5139245;27;45496;-80
2022/09/01 03:45:48;;;;;;;;;15.00;15.00;;;;;19.53;64.05;100696.13;5139447;27;45276;-75
2022/09/01 03:48:15;;;;;;;;;11.00;11.00;;;;;19.53;63.70;100699.63;5138076;27;45581;-79
2022/09/01 03:50:46;;;;;;;;;10.25;10.25;;;;;19.54;63.41;100701.31;5137850;27;47128;-77
2022/09/01 03:53:18;;;;;;;;;15.50;15.50;;;;;19.54;64.13;100700.50;5139265;27;45361;-80
2022/09/01 03:55:46;;;;;;;;;17.00;16.00;;;;;19.43;64.07;100687.97;5120157;27;45280;-78
2022/09/01 03:58:17;;;;;;;;;16.00;16.00;;;;;19.48;63.69;100700.97;5139299;27;45567;-79
2022/09/01 04:00:45;;;;;;;;;13.75;13.00;;;;;19.45;63.82;100706.53;5139054;27;45522;-81
2022/09/01 04:03:12;;;;;;;;;13.50;13.50;;;;;19.42;64.19;100704.94;5140531;27;45264;-81
2022/09/01 04:05:42;;;;;;;;;13.00;13.00;;;;;19.38;63.71;100696.31;5141168;27;45307;-79
2022/09/01 04:08:10;;;;;;;;;15.50;14.75;;;;;19.33;64.00;100693.16;5144512;27;45330;-79
2022/09/01 04:10:43;;;;;;;;;15.50;15.50;;;;;19.32;63.93;100694.13;5133433;27;46396;-80
2022/09/01 04:13:11;;;;;;;;;12.75;12.75;;;;;19.31;64.47;100700.44;5146762;27;45406;-79
2022/09/01 04:15:37;;;;;;;;;14.25;14.25;;;;;19.31;64.32;100696.91;5144553;27;45317;-79
2022/09/01 04:18:08;;;;;;;;;15.00;15.00;;;;;19.16;64.20;100673.09;5142390;27;45372;-82
2022/09/01 04:20:48;;;;;;;;;11.00;11.00;;;;;19.24;64.50;100680.53;5142237;27;45317;-80
2022/09/01 04:23:32;;;;;;;;;13.50;13.50;;;;;19.19;64.45;100678.19;5142324;27;45252;-80
2022/09/01 04:26:19;;;;;;;;;16.50;16.50;;;;;19.18;64.34;100676.50;5148265;27;45263;-75
2022/09/01 04:28:49;;;;;;;;;12.25;12.25;;;;;19.11;64.27;100665.44;5150604;27;45163;-76
2022/09/01 04:31:18;;;;;;;;;13.50;13.50;;;;;19.23;64.18;100687.66;5144191;27;45493;-74
2022/09/01 04:33:46;;;;;;;;;15.50;15.50;;;;;19.22;64.40;100685.97;5128014;27;45294;-77
2022/09/01 04:36:21;;;;;;;;;33.50;31.25;;;;;19.22;64.43;100680.63;5149117;27;44786;-75
2022/09/01 04:38:49;;;;;;;;;16.50;16.50;;;;;19.21;64.56;100672.75;5148422;27;45180;-75
2022/09/01 04:41:16;;;;;;;;;14.25;14.25;;;;;19.24;64.90;100681.34;5151432;27;45385;-75
2022/09/01 04:43:46;;;;;;;;;14.00;14.00;;;;;19.28;64.71;100690.00;5147714;27;45281;-77
2022/09/01 04:46:15;;;;;;;;;14.50;14.50;;;;;19.25;64.21;100679.56;5142673;27;45288;-78
2022/09/01 04:48:44;;;;;;;;;15.50;15.25;;;;;19.25;64.55;100679.56;5144536;27;45403;-78
2022/09/01 04:51:14;;;;;;;;;15.00;15.00;;;;;19.33;64.28;100693.16;5123143;27;48124;-76
2022/09/01 04:53:41;;;;;;;;;16.50;15.50;;;;;19.30;64.59;100679.19;5148660;27;45390;-77
2022/09/01 04:56:08;;;;;;;;;14.25;14.25;;;;;19.31;64.39;100686.22;5142363;27;45381;-77
2022/09/01 04:58:35;;;;;;;;;15.50;15.50;;;;;19.32;63.82;100686.13;5143960;27;45107;-77
2022/09/01 05:01:06;;;;;;;;;16.25;16.25;;;;;19.35;64.07;100683.22;5142641;27;45378;-77
2022/09/01 05:03:31;;;;;;;;;15.00;15.00;;;;;19.34;64.11;100681.53;5125145;27;45705;-79
2022/09/01 05:06:02;;;;;;;;;20.50;20.50;;;;;19.39;64.30;100687.34;5142239;27;45388;-79
2022/09/01 05:08:27;;;;;;;;;16.75;16.75;;;;;19.44;64.23;100686.16;5142928;27;45445;-77
2022/09/01 05:10:54;;;;;;;;;15.25;15.25;;;;;19.46;64.26;100692.22;5142656;27;45455;-75
2022/09/01 05:13:22;;;;;;;;;19.00;18.75;;;;;19.46;64.01;100698.41;5142219;27;45323;-78
2022/09/01 05:16:00;;;;;;;;;22.00;22.00;;;;;19.46;64.06;100690.41;5145645;27;45481;-77
2022/09/01 05:18:26;;;;;;;;;13.25;13.25;;;;;19.48;63.74;100690.28;5134362;27;44865;-78
2022/09/01 05:20:54;;;;;;;;;17.25;17.25;;;;;19.49;63.42;100689.31;5153458;27;45553;-76
2022/09/01 05:23:21;;;;;;;;;14.00;14.00;;;;;19.54;63.78;100689.81;5149562;27;45801;-77
2022/09/01 05:25:51;;;;;;;;;17.50;16.75;;;;;19.57;63.53;100694.91;5145922;27;45498;-80
2022/09/01 05:28:18;;;;;;;;;14.00;14.00;;;;;19.60;63.60;100694.69;5142999;27;45357;-79
2022/09/01 05:30:47;;;;;;;;;14.25;14.25;;;;;19.64;63.14;100696.16;5131688;27;46833;-79
2022/09/01 05:33:15;;;;;;;;;14.00;14.00;;;;;19.67;63.37;100690.56;5149176;27;45417;-79
2022/09/01 05:35:50;;;;;;;;;14.25;14.25;;;;;19.74;63.34;100703.44;5146414;27;45456;-77
2022/09/01 05:38:16;;;;;;;;;15.00;15.00;;;;;19.78;62.50;100696.91;5142199;27;45384;-79
2022/09/01 05:40:42;;;;;;;;;15.50;15.50;;;;;19.84;63.14;100693.75;5141676;27;46233;-79
2022/09/01 05:43:11;;;;;;;;;15.75;15.75;;;;;19.90;62.15;100695.13;5141664;27;45510;-78
2022/09/01 05:45:39;;;;;;;;;15.00;15.00;;;;;19.89;62.47;100683.56;5142319;27;45387;-76
2022/09/01 05:48:04;;;;;;;;;15.25;15.25;;;;;19.99;61.85;100687.25;5141193;27;45244;-76
2022/09/01 05:50:30;;;;;;;;;15.50;15.50;;;;;20.00;61.87;100680.94;5140302;27;46459;-75
2022/09/01 05:52:55;;;;;;;;;13.50;13.50;;;;;20.08;61.99;100693.69;5120993;27;45270;-78
2022/09/01 05:55:21;;;;;;;;;11.50;11.50;;;;;20.13;61.74;100690.66;5140465;27;45636;-77
2022/09/01 05:57:47;;;;;;;;;14.25;14.25;;;;;20.17;61.62;100692.13;5141346;27;45438;-80
2022/09/01 06:00:13;;;;;;;;;15.50;15.50;;;;;20.24;60.96;100689.81;5142373;27;46117;-76
2022/09/01 06:02:41;;;;;;;;;14.00;14.00;;;;;20.26;60.85;100693.19;5140796;27;45249;-75
2022/09/01 06:05:09;;;;;;;;;17.50;17.50;;;;;20.32;60.69;100691.88;5146880;27;45375;-77
2022/09/01 06:07:36;;;;;;;;;18.00;18.00;;;;;20.39;60.66;100695.75;5135607;27;45467;-79
2022/09/01 06:10:03;;;;;;;;;14.50;14.50;;;;;20.41;60.08;100694.66;5148907;27;46411;-79
2022/09/01 06:12:29;;;;;;;;;15.75;15.75;;;;;20.41;60.22;100691.97;5147821;27;45368;-81
2022/09/01 06:14:55;;;;;;;;;15.25;15.25;;;;;20.48;59.90;100703.03;5149992;27;44751;-78
2022/09/01 06:17:23;;;;;;;;;14.25;14.25;;;;;20.48;59.55;100691.47;5149080;27;45694;-75
2022/09/01 06:19:58;;;;;;;;;14.00;14.00;;;;;20.58;59.42;100701.31;5132753;27;47403;-79
2022/09/01 06:22:27;;;;;;;;;14.00;14.00;;;;;20.62;59.52;100701.06;5143941;27;45250;-76
2022/09/01 06:24:53;;;;;;;;;18.50;18.50;;;;;20.69;59.72;100704.94;5144174;27;45334;-78
2022/09/01 06:27:20;;;;;;;;;20.00;20.00;;;;;20.76;59.14;100710.66;5145818;27;45427;-76
2022/09/01 06:29:50;;;;;;;;;14.50;14.50;;;;;20.80;59.05;100704.94;5131254;27;45329;-75
2022/09/01 06:32:16;;;;;;;;;24.50;23.25;;;;;20.87;59.04;100706.13;5127055;27;45375;-77
2022/09/01 06:34:49;;;;;;;;;14.25;14.25;;;;;20.93;58.91;100709.28;5124818;27;45243;-77
2022/09/01 06:37:14;;;;;;;;;12.75;12.75;;;;;21.00;58.63;100711.34;5143399;27;45165;-77
2022/09/01 06:39:40;;;;;;;;;23.00;23.00;;;;;21.05;58.41;100699.41;5143028;27;45523;-76
2022/09/01 06:42:08;;;;;;;;;12.25;12.25;;;;;21.09;58.37;100715.06;5141191;27;45214;-79
2022/09/01 06:44:34;;;;;;;;;15.75;15.50;;;;;21.17;58.17;100711.75;5140951;27;45351;-76
2022/09/01 06:46:59;;;;;;;;;16.25;16.25;;;;;21.20;57.84;100713.31;5141320;27;45542;-78
2022/09/01 06:49:31;;;;;;;;;13.75;13.75;;;;;21.19;58.08;100704.44;5139655;27;46176;-81
2022/09/01 06:52:01;;;;;;;;;18.25;18.25;;;;;21.16;58.18;100692.16;5121718;27;45259;-78
2022/09/01 06:54:30;;;;;;;;;16.25;16.25;;;;;21.32;58.19;100706.97;5122101;27;45886;-74
2022/09/01 06:56:57;;;;;;;;;13.50;13.50;;;;;21.36;57.87;100707.53;5144568;27;45332;-77
2022/09/01 06:59:30;;;;;;;;;15.50;15.50;;;;;21.35;57.63;100704.03;5146285;27;45419;-78
2022/09/01 07:02:00;;;;;;;;;18.00;18.00;;;;;21.26;57.70;100697.63;5144571;27;45261;-77
2022/09/01 07:04:28;;;;;;;;;16.00;15.00;;;;;21.39;57.65;100713.50;5127190;27;45441;-78
2022/09/01 07:06:53;;;;;;;;;28.00;28.00;;;;;21.39;58.19;100700.13;5124161;27;44944;-77
2022/09/01 07:09:19;;;;;;;;;14.25;14.25;;;;;21.54;57.68;100715.84;5139700;27;45473;-79
2022/09/01 07:11:44;;;;;;;;;13.75;13.75;;;;;21.55;57.45;100699.66;5139778;27;45306;-77
2022/09/01 07:14:10;;;;;;;;;13.75;13.75;;;;;21.70;57.32;100712.72;5139723;27;45290;-77
2022/09/01 07:16:40;;;;;;;;;13.75;13.75;;;;;21.81;56.99;100709.16;5142385;27;45332;-74
2022/09/01 07:19:13;;;;;;;;;16.75;16.75;;;;;21.88;57.01;100703.13;5140033;27;45409;-77
2022/09/01 07:21:40;;;;;;;;;15.25;14.50;;;;;21.95;56.80;100716.84;5121861;27;45498;-80
2022/09/01 07:24:05;;;;;;;;;15.25;15.25;;;;;22.01;56.68;100713.63;5140611;27;45333;-80
2022/09/01 07:26:34;;;;;;;;;15.50;15.50;;;;;22.10;56.59;100714.66;5140362;27;45381;-80
2022/09/01 07:29:02;;;;;;;;;13.75;13.75;;;;;22.14;56.21;100709.88;5140902;27;45579;-82
2022/09/01 07:31:31;;;;;;;;;13.75;13.75;;;;;22.29;56.20;100724.63;5147632;27;45302;-80
2022/09/01 07:33:59;;;;;;;;;24.50;24.50;;;;;22.33;55.63;100712.66;5148620;27;45152;-79
2022/09/01 07:36:25;;;;;;;;;21.25;21.25;;;;;22.45;55.80;100713.41;5139877;27;45314;-79
2022/09/01 07:38:53;;;;;;;;;16.25;16.25;;;;;22.45;55.61;100712.59;5139637;27;46680;-75
2022/09/01 07:41:21;;;;;;;;;18.25;18.25;;;;;22.55;55.14;100729.53;5138098;27;45416;-76
2022/09/01 07:43:48;;;;;;;;;17.00;17.00;;;;;22.54;55.17;100725.16;5138751;27;45321;-78
2022/09/01 07:46:13;;;;;;;;;13.50;13.50;;;;;22.50;54.86;100725.56;5138536;27;45524;-75
2022/09/01 07:48:39;;;;;;;;;17.50;17.50;;;;;22.46;55.26;100720.47;5137452;27;46587;-75
2022/09/01 07:51:04;;;;;;;;;18.25;18.25;;;;;22.45;55.22;100717.94;5138049;27;45202;-79
2022/09/01 07:53:33;;;;;;;;;16.50;16.50;;;;;22.50;55.50;100723.75;5137857;27;45338;-74
2022/09/01 07:56:08;;;;;;;;;13.50;13.50;;;;;22.54;54.83;100724.28;5137721;27;45496;-79
2022/09/01 07:58:34;;;;;;;;;18.75;18.25;;;;;22.56;55.22;100723.19;5136913;27;45484;-76
2022/09/01 08:01:04;;;;;;;;;20.00;20.00;;;;;22.59;55.22;100725.59;5137065;27;45455;-74
2022/09/01 08:03:30;;;;;;;;;16.25;16.25;;;;;22.64;54.82;100727.03;5137889;27;45186;-75
2022/09/01 08:06:02;;;;;;;;;15.75;15.75;;;;;22.70;54.72;100718.44;5137719;27;45221;-75
2022/09/01 08:08:28;;;;;;;;;13.00;13.00;;;;;22.69;54.55;100724.78;5118516;27;46809;-76
2022/09/01 08:10:53;;;;;;;;;18.00;18.00;;;;;22.79;54.48;100735.50;5137791;27;45318;-73
2022/09/01 08:13:19;;;;;;;;;13.75;13.75;;;;;22.82;54.02;100735.25;5137371;27;45392;-74
2022/09/01 08:15:44;;;;;;;;;17.00;16.75;;;;;22.80;54.21;100727.34;5137895;27;45475;-76
2022/09/01 08:18:10;;;;;;;;;20.00;20.00;;;;;22.85;53.78;100724.25;5137012;27;45248;-74
2022/09/01 08:20:44;;;;;;;;;17.75;17.75;;;;;22.95;54.47;100719.75;5118112;27;45992;-74
2022/09/01 08:23:11;;;;;;;;;18.25;18.25;;;;;23.08;53.62;100729.38;5137484;27;45282;-75
2022/09/01 08:25:37;;;;;;;;;18.75;18.75;;;;;23.14;53.33;100729.63;5119172;27;45728;-76
2022/09/01 08:28:03;;;;;;;;;19.00;19.00;;;;;23.26;53.58;100733.06;5120354;27;48193;-75
2022/09/01 08:30:31;;;;;;;;;16.75;16.75;;;;;23.31;53.36;100733.50;5138282;27;45491;-75
2022/09/01 08:32:57;;;;;;;;;18.00;18.00;;;;;23.32;53.25;100732.50;5119049;27;45382;-74
2022/09/01 08:35:22;;;;;;;;;18.00;18.00;;;;;23.39;52.90;100731.94;5142083;27;45407;-74
2022/09/01 08:37:47;;;;;;;;;20.00;19.00;;;;;23.41;52.54;100730.81;5148699;27;46229;-75
2022/09/01 08:40:17;;;;;;;;;22.50;22.50;;;;;23.45;52.42;100736.72;5142821;27;45273;-78
2022/09/01 08:43:12;;;;;;;;;14.50;14.50;;;;;23.52;52.53;100732.47;5141698;27;45277;-77
2022/09/01 08:45:40;;;;;;;;;16.00;15.25;;;;;23.61;52.43;100734.31;5037006;28;45612;-78
2022/09/01 08:48:38;;;;;;;;;39.50;34.00;;;;;23.70;51.88;100740.66;5126429;27;46467;-80
2022/09/01 08:51:34;;;;;;;;;21.25;21.00;;;;;23.79;52.15;100741.63;5125648;27;45370;-80
2022/09/01 08:54:23;;;;;;;;;16.75;16.75;;;;;23.86;52.15;100744.59;5158805;27;45206;-75
2022/09/01 08:56:58;;;;;;;;;19.75;19.75;;;;;23.89;51.38;100747.00;5154183;27;45361;-74
2022/09/01 08:59:25;;;;;;;;;16.50;16.50;;;;;23.85;51.43;100729.47;5134643;27;46063;-75
2022/09/01 09:02:16;;;;;;;;;19.00;19.00;;;;;24.01;51.61;100736.97;5154640;27;45473;-74
2022/09/01 09:05:09;;;;;;;;;17.75;17.75;;;;;24.22;51.21;100747.47;5156084;27;45453;-77
2022/09/01 09:07:34;;;;;;;;;19.00;19.00;;;;;24.29;50.72;100745.06;5158086;27;45174;-75
2022/09/01 09:10:17;;;;;;;;;19.75;19.75;;;;;24.45;50.80;100752.50;5154010;27;45608;-79
2022/09/01 09:12:51;;;;;;;;;25.00;24.00;;;;;24.59;51.02;100752.00;5142105;27;45356;-76
2022/09/01 09:15:22;;;;;;;;;19.25;19.25;;;;;24.76;50.54;100747.69;5142310;27;45418;-76
2022/09/01 09:17:58;;;;;;;;;20.25;20.25;;;;;24.90;49.69;100749.03;5141107;27;45370;-80
2022/09/01 09:20:24;;;;;;;;;22.75;22.75;;;;;24.95;49.38;100740.50;5140891;27;45434;-83
2022/09/01 09:22:51;;;;;;;;;20.75;20.75;;;;;25.09;49.50;100755.25;5140768;27;45365;-77
2022/09/01 09:25:17;;;;;;;;;17.50;17.25;;;;;25.17;49.70;100743.75;5141337;27;45279;-82
2022/09/01 09:27:48;;;;;;;;;22.25;21.75;;;;;25.18;49.19;100740.88;5141742;27;45383;-81
2022/09/01 09:30:25;;;;;;;;;17.00;17.00;;;;;25.34;48.94;100750.09;5141142;27;46326;-78
2022/09/01 09:32:59;;;;;;;;;14.75;14.75;;;;;25.38;48.58;100735.34;5141630;27;45483;-74
2022/09/01 09:35:35;;;;;;;;;17.25;17.25;;;;;25.58;48.49;100743.28;5142784;27;45371;-74
2022/09/01 09:38:21;;;;;;;;;16.00;16.00;;;;;25.72;48.14;100739.16;5145009;27;45255;-75
2022/09/01 09:40:58;;;;;;;;;22.50;22.50;;;;;25.65;47.93;100737.09;5142298;27;45387;-79
2022/09/01 09:43:25;;;;;;;;;19.00;19.00;;;;;25.56;48.23;100742.59;5140283;27;45295;-76
2022/09/01 09:46:28;;;;;;;;;43.25;37.25;;;;;25.55;47.91;100730.97;5141987;27;45238;-75
2022/09/01 09:49:11;;;;;;;;;19.00;18.75;;;;;25.66;47.83;100732.56;5153785;27;45184;-73
2022/09/01 09:51:40;;;;;;;;;16.00;16.00;;;;;25.69;47.95;100729.56;5145765;27;46281;-76
2022/09/01 09:54:13;;;;;;;;;21.50;21.50;;;;;25.64;48.03;100724.63;5141691;27;45390;-77
2022/09/01 09:56:40;;;;;;;;;20.00;20.00;;;;;25.66;47.77;100732.56;5120692;27;45457;-76
2022/09/01 09:59:35;;;;;;;;;17.75;17.75;;;;;25.64;47.51;100721.94;5141726;27;45481;-79
2022/09/01 10:02:16;;;;;;;;;16.75;16.75;;;;;25.71;47.38;100718.63;5123405;27;48089;-78
2022/09/01 10:04:42;;;;;;;;;13.25;13.25;;;;;25.74;47.22;100727.25;5140109;27;45362;-77
2022/09/01 10:07:35;;;;;;;;;21.25;21.25;;;;;25.88;47.11;100725.81;5140822;27;45423;-78
2022/09/01 10:10:06;;;;;;;;;15.75;15.75;;;;;26.02;46.80;100727.06;5131803;27;45424;-81
2022/09/01 10:12:32;;;;;;;;;15.25;15.25;;;;;26.18;46.55;100723.66;5141731;27;45714;-78
2022/09/01 10:15:04;;;;;;;;;17.75;17.75;;;;;26.36;46.57;100720.88;5143032;27;45260;-81
2022/09/01 10:17:34;;;;;;;;;15.75;15.75;;;;;26.50;45.69;100721.25;5143386;27;45303;-82
2022/09/01 10:20:07;;;;;;;;;19.00;19.00;;;;;26.52;45.50;100724.66;5144158;27;45424;-75
2022/09/01 10:22:36;;;;;;;;;17.75;17.75;;;;;26.57;45.46;100722.31;5143352;27;45333;-76
2022/09/01 10:25:04;;;;;;;;;15.00;15.00;;;;;26.72;45.68;100727.06;5142540;27;45358;-74
2022/09/01 10:27:35;;;;;;;;;15.50;15.50;;;;;26.85;45.14;100719.38;5149740;27;45294;-79
2022/09/01 10:30:03;;;;;;;;;17.50;15.75;;;;;26.99;45.09;100717.88;5142642;27;44822;-75
2022/09/01 10:32:36;;;;;;;;;15.00;15.00;;;;;27.16;44.58;100712.50;5122043;27;47548;-76
2022/09/01 10:35:03;;;;;;;;;13.50;13.50;;;;;27.29;44.13;100707.44;5141269;27;45418;-76
2022/09/01 10:37:30;;;;;;;;;15.75;15.75;;;;;27.45;44.18;100711.16;5141816;27;45209;-80
2022/09/01 10:40:09;;;;;;;;;15.50;15.50;;;;;27.62;43.84;100709.31;5123417;27;45344;-77
2022/09/01 10:42:35;;;;;;;;;18.25;18.25;;;;;27.74;43.49;100699.84;5121894;27;48442;-80
2022/09/01 10:45:01;;;;;;;;;18.00;18.00;;;;;27.90;43.14;100704.34;5121610;27;45303;-81
2022/09/01 10:47:32;;;;;;;;;18.75;18.75;;;;;27.98;42.45;100708.91;5141940;27;45388;-79
2022/09/01 10:50:25;;;;;;;;;19.75;19.75;;;;;28.13;42.64;100700.91;5149156;27;45360;-75
2022/09/01 10:52:53;;;;;;;;;32.75;30.25;;;;;28.23;42.66;100706.13;5143009;27;45328;-80
2022/09/01 10:55:24;;;;;;;;;24.75;24.75;;;;;28.25;41.66;100699.53;5122931;27;45305;-76
2022/09/01 10:58:11;;;;;;;;;31.75;30.00;;;;;28.19;42.41;100702.09;5121424;27;45318;-79
2022/09/01 11:00:36;;;;;;;;;17.00;16.50;;;;;28.16;42.29;100706.00;5139998;27;45426;-78
2022/09/01 11:03:10;;;;;;;;;13.25;13.25;;;;;28.19;41.87;100696.69;5140422;27;45363;-77
2022/09/01 11:05:54;;;;;;;;;10.50;10.00;;;;;28.30;41.47;100696.31;5141188;27;45189;-78
2022/09/01 11:08:25;;;;;;;;;12.25;12.25;;;;;28.42;41.86;100697.59;5143136;27;45565;-80
2022/09/01 11:11:15;;;;;;;;;10.00;10.00;;;;;28.52;40.70;100696.53;5140577;27;45526;-82
2022/09/01 11:13:42;;;;;;;;;10.75;10.75;;;;;28.61;40.96;100690.03;5140343;27;45642;-77
2022/09/01 11:16:34;;;;;;;;;13.75;13.75;;;;;28.81;39.98;100692.34;5140363;27;45492;-80
2022/09/01 11:19:27;;;;;;;;;13.25;12.50;;;;;28.99;39.94;100686.63;5140924;27;45172;-77
2022/09/01 11:22:19;;;;;;;;;11.00;11.00;;;;;29.11;39.64;100684.34;5139375;27;45443;-77
2022/09/01 11:24:48;;;;;;;;;10.50;10.50;;;;;29.12;38.80;100686.03;5138090;27;45412;-77
2022/09/01 11:27:48;;;;;;;;;10.75;10.75;;;;;29.11;37.60;100678.94;5138204;27;45455;-74